METAR Data
IDs: Format: Raw Decoded Include TAF

Data at: 1204 UTC 24 May 2022

NZAA 241130Z AUTO 24010KT 9999 BKN050/// 15/10 Q1019 NOSIG